Time;durP1;ratioP1;P1;durP2;ratioP2;P2;SDS_P1;SDS_P2;PMS_P1;PMS_P2;Temp;Humidity;BMP_temperature;BMP_pressure;BME280_temperature;BME280_humidity;BME280_pressure;Samples;Min_cycle;Max_cycle;Signal;HPM_P1;HPM_P2
2022/07/23 00:01:52;;;;;;;;;;;;;;;20.55;52.42;101193.05;1702623;83;25729;-55
2022/07/23 00:04:19;;;;;;;;;;;;;;;20.54;52.32;101200.05;1711647;83;25753;-54
2022/07/23 00:06:46;;;;;;;;;;;;;;;20.52;52.95;101196.69;1728754;82;25727;-55
2022/07/23 00:09:13;;;;;;;;;;;;;;;20.45;53.79;101194.70;1735647;82;25695;-56
2022/07/23 00:11:39;;;;;;;;;;;;;;;20.37;53.99;101190.70;1719813;82;27567;-55
2022/07/23 00:14:06;;;;;;;;;;;;;;;20.29;53.96;101191.69;1716108;83;25796;-56
2022/07/23 00:16:33;;;;;;;;;;;;;;;20.20;54.39;101194.19;1717738;83;25723;-55
2022/07/23 00:19:01;;;;;;;;;;;;;;;20.16;54.96;101192.36;1728737;83;27536;-54
2022/07/23 00:21:27;;;;;;;;;;;;;;;20.08;55.00;101189.70;1729223;83;25827;-55
2022/07/23 00:23:54;;;;;;;;;;;;;;;19.98;55.82;101187.27;1729136;83;27586;-55
2022/07/23 00:26:21;;;;;;;;;;;;;;;19.92;55.73;101183.94;1715967;82;25867;-55
2022/07/23 00:28:48;;;;;;;;;;;;;;;19.88;55.60;101184.50;1688011;85;25480;-55
2022/07/23 00:31:15;;;;;;;;;;;;;;;19.83;55.78;101184.49;1687721;84;25777;-54
2022/07/23 00:33:41;;;;;;;;;;;;;;;19.75;55.81;101186.48;1697122;82;25742;-55
2022/07/23 00:36:09;;;;;;;;;;;;;;;19.74;55.81;101180.69;1717225;83;27592;-56
2022/07/23 00:38:35;;;;;;;;;;;;;;;19.74;55.77;101187.52;1727870;83;25451;-55
2022/07/23 00:41:02;;;;;;;;;;;;;;;19.75;55.78;101181.02;1713321;83;25745;-55
2022/07/23 00:43:28;;;;;;;;;;;;;;;19.77;55.82;101180.30;1719177;83;25682;-56
2022/07/23 00:45:55;;;;;;;;;;;;;;;19.79;55.88;101183.69;1721882;83;25737;-55
2022/07/23 00:48:22;;;;;;;;;;;;;;;19.76;55.97;101185.45;1724083;82;27542;-56
2022/07/23 00:50:49;;;;;;;;;;;;;;;19.73;55.71;101179.82;1697702;83;25700;-56
2022/07/23 00:53:17;;;;;;;;;;;;;;;19.74;56.42;101179.33;1688502;82;25717;-55
2022/07/23 00:55:43;;;;;;;;;;;;;;;19.71;55.82;101183.28;1687509;85;25769;-55
2022/07/23 00:58:11;;;;;;;;;;;;;;;19.71;55.80;101182.75;1713297;83;25765;-55
2022/07/23 01:00:38;;;;;;;;;;;;;;;19.70;55.76;101179.69;1716256;83;27477;-55
2022/07/23 01:03:05;;;;;;;;;;;;;;;19.68;56.01;101179.55;1716423;82;25492;-55
2022/07/23 01:05:32;;;;;;;;;;;;;;;19.63;56.05;101178.74;1724246;83;25775;-55
2022/07/23 01:07:58;;;;;;;;;;;;;;;19.60;56.36;101183.20;1727866;83;25800;-55
2022/07/23 01:10:31;;;;;;;;;;;;;;;19.57;56.30;101184.95;1729039;83;25752;-56
2022/07/23 01:13:06;;;;;;;;;;;;;;;19.52;56.81;101181.42;1717560;82;27832;-55
2022/07/23 01:15:35;;;;;;;;;;;;;;;19.43;58.25;101179.80;1687540;85;26267;-55
2022/07/23 01:18:03;;;;;;;;;;;;;;;19.33;58.26;101181.94;1715389;83;25676;-55
2022/07/23 01:20:31;;;;;;;;;;;;;;;19.29;58.66;101181.95;1719863;82;26329;-56
2022/07/23 01:22:59;;;;;;;;;;;;;;;19.28;58.24;101182.48;1687723;85;25688;-55
2022/07/23 01:25:26;;;;;;;;;;;;;;;19.25;58.78;101189.66;1687769;85;27569;-55
2022/07/23 01:27:57;;;;;;;;;;;;;;;19.17;60.02;101193.33;1704650;83;25768;-56
2022/07/23 01:30:24;;;;;;;;;;;;;;;19.08;59.59;101193.05;1716396;83;25702;-55
2022/07/23 01:32:50;;;;;;;;;;;;;;;19.05;59.29;101194.77;1716539;83;25705;-56
2022/07/23 01:35:17;;;;;;;;;;;;;;;19.01;60.47;101201.60;1716407;83;25788;-56
2022/07/23 01:37:43;;;;;;;;;;;;;;;18.95;59.93;101199.61;1721723;82;27569;-55
2022/07/23 01:40:10;;;;;;;;;;;;;;;18.92;59.47;101204.89;1712624;82;25982;-56
2022/07/23 01:42:37;;;;;;;;;;;;;;;18.91;59.33;101200.46;1697406;82;25864;-55
2022/07/23 01:45:06;;;;;;;;;;;;;;;18.94;59.07;101198.78;1724003;83;25694;-55
2022/07/23 01:47:34;;;;;;;;;;;;;;;18.97;58.75;101198.39;1684995;83;25983;-55
2022/07/23 01:50:00;;;;;;;;;;;;;;;19.05;58.69;101203.78;1684819;85;27495;-55
2022/07/23 01:52:44;;;;;;;;;;;;;;;19.08;58.68;101196.61;1672936;84;25805;-55
2022/07/23 01:55:11;;;;;;;;;;;;;;;19.07;58.50;101193.55;1761638;80;25728;-55
2022/07/23 01:57:39;;;;;;;;;;;;;;;19.07;58.52;101194.08;1766788;80;25747;-54
2022/07/23 02:00:08;;;;;;;;;;;;;;;19.12;58.50;101193.53;1746104;81;25934;-55
2022/07/23 02:02:42;;;;;;;;;;;;;;;19.16;58.22;101193.48;1773715;79;27471;-55
2022/07/23 02:05:09;;;;;;;;;;;;;;;19.16;58.31;101199.80;1774045;81;25796;-55
2022/07/23 02:07:37;;;;;;;;;;;;;;;19.14;58.28;101203.75;1774274;81;25761;-56
2022/07/23 02:10:05;;;;;;;;;;;;;;;19.13;58.36;101205.61;1774091;81;25493;-55
2022/07/23 02:12:32;;;;;;;;;;;;;;;19.13;58.30;101205.61;1769787;80;25790;-55
2022/07/23 02:14:58;;;;;;;;;;;;;;;19.10;58.28;101210.05;1774382;80;27508;-55
2022/07/23 02:17:25;;;;;;;;;;;;;;;19.04;59.16;101213.02;1774186;81;25686;-55
2022/07/23 02:19:51;;;;;;;;;;;;;;;19.02;58.82;101204.17;1773811;80;25787;-55
2022/07/23 02:22:18;;;;;;;;;;;;;;;19.00;58.59;101207.59;1774419;81;25700;-56
2022/07/23 02:24:45;;;;;;;;;;;;;;;18.97;58.73;101198.92;1774263;81;25617;-55
2022/07/23 02:27:11;;;;;;;;;;;;;;;18.95;58.52;101207.30;1773064;80;27554;-55
2022/07/23 02:29:38;;;;;;;;;;;;;;;18.95;58.71;101207.30;1774425;80;25693;-55
2022/07/23 02:32:06;;;;;;;;;;;;;;;18.96;58.41;101207.59;1774309;81;25744;-55
2022/07/23 02:34:32;;;;;;;;;;;;;;;18.96;58.45;101204.88;1774513;81;26280;-56
2022/07/23 02:36:59;;;;;;;;;;;;;;;18.92;58.55;101205.75;1772907;80;26307;-56
2022/07/23 02:39:27;;;;;;;;;;;;;;;18.87;58.81;101207.32;1774195;81;29559;-55
2022/07/23 02:41:53;;;;;;;;;;;;;;;18.84;58.48;101201.69;1774195;80;25481;-55
2022/07/23 02:44:21;;;;;;;;;;;;;;;18.84;58.74;101208.50;1774194;81;25712;-55
2022/07/23 02:46:50;;;;;;;;;;;;;;;18.81;58.82;101211.61;1773101;80;26468;-56
2022/07/23 02:49:18;;;;;;;;;;;;;;;18.76;59.24;101212.15;1774429;80;25701;-55
2022/07/23 02:51:46;;;;;;;;;;;;;;;18.76;59.18;101211.28;1773673;80;27483;-54
2022/07/23 02:54:13;;;;;;;;;;;;;;;18.76;59.07;101209.92;1774204;81;25719;-56
2022/07/23 02:56:40;;;;;;;;;;;;;;;18.77;59.24;101211.62;1774308;81;26103;-55
2022/07/23 02:59:06;;;;;;;;;;;;;;;18.74;59.38;101223.73;1772811;80;25669;-55
2022/07/23 03:01:33;;;;;;;;;;;;;;;18.72;59.47;101220.86;1752696;81;25752;-55
2022/07/23 03:03:59;;;;;;;;;;;;;;;18.69;59.83;101217.95;1774596;81;27622;-55
2022/07/23 03:06:26;;;;;;;;;;;;;;;18.67;59.85;101221.40;1773921;81;25514;-54
2022/07/23 03:08:52;;;;;;;;;;;;;;;18.63;59.92;101221.41;1761631;80;25779;-55
2022/07/23 03:11:19;;;;;;;;;;;;;;;18.59;60.08;101223.64;1763455;80;25699;-55
2022/07/23 03:13:46;;;;;;;;;;;;;;;18.53;60.93;101228.45;1785731;79;26059;-55
2022/07/23 03:16:14;;;;;;;;;;;;;;;18.45;61.37;101234.77;1737086;82;27520;-55
2022/07/23 03:18:40;;;;;;;;;;;;;;;18.42;61.17;101229.67;1761853;79;25788;-55
2022/07/23 03:21:08;;;;;;;;;;;;;;;18.42;61.29;101231.03;1770497;80;25786;-55
2022/07/23 03:23:35;;;;;;;;;;;;;;;18.42;61.09;101232.39;1787679;79;25473;-55
2022/07/23 03:26:02;;;;;;;;;;;;;;;18.40;62.08;101232.24;1787950;80;25754;-55
2022/07/23 03:28:29;;;;;;;;;;;;;;;18.34;62.96;101236.52;1785294;79;27460;-56
2022/07/23 03:30:55;;;;;;;;;;;;;;;18.28;63.63;101236.73;1752467;80;26034;-56
2022/07/23 03:33:22;;;;;;;;;;;;;;;18.27;62.68;101236.39;1770173;80;25806;-56
2022/07/23 03:35:49;;;;;;;;;;;;;;;18.32;62.29;101241.81;1770252;80;25830;-56
2022/07/23 03:38:17;;;;;;;;;;;;;;;18.34;63.12;101240.59;1766725;81;25697;-55
2022/07/23 03:40:43;;;;;;;;;;;;;;;18.33;63.55;101240.79;1767037;81;27447;-55
2022/07/23 03:43:10;;;;;;;;;;;;;;;18.34;63.20;101246.05;1767267;80;25712;-56
2022/07/23 03:45:37;;;;;;;;;;;;;;;18.35;62.79;101238.74;1765316;80;25740;-55
2022/07/23 03:48:05;;;;;;;;;;;;;;;18.40;62.35;101241.28;1767155;81;25610;-55
2022/07/23 03:50:32;;;;;;;;;;;;;;;18.51;62.02;101240.56;1767320;81;25693;-56
2022/07/23 03:52:59;;;;;;;;;;;;;;;18.58;61.79;101231.48;1785410;80;27458;-56
2022/07/23 03:55:26;;;;;;;;;;;;;;;18.68;61.66;101231.77;1774040;79;25723;-54
2022/07/23 03:57:52;;;;;;;;;;;;;;;18.77;61.30;101233.42;1767124;80;26746;-56
2022/07/23 04:00:19;;;;;;;;;;;;;;;18.85;61.33;101232.02;1765487;80;25767;-55
2022/07/23 04:02:46;;;;;;;;;;;;;;;18.91;61.43;101231.81;1783512;80;25679;-56
2022/07/23 04:05:13;;;;;;;;;;;;;;;18.93;61.28;101233.35;1775626;79;27561;-56
2022/07/23 04:07:41;;;;;;;;;;;;;;;18.98;60.87;101231.45;1787062;79;25745;-55
2022/07/23 04:10:09;;;;;;;;;;;;;;;19.07;60.77;101229.53;1787885;80;25722;-54
2022/07/23 04:12:35;;;;;;;;;;;;;;;19.09;60.48;101228.84;1785572;80;26083;-55
2022/07/23 04:15:05;;;;;;;;;;;;;;;19.16;60.22;101230.30;1776198;80;25748;-55
2022/07/23 04:17:32;;;;;;;;;;;;;;;19.25;60.23;101234.66;1774034;80;27420;-55
2022/07/23 04:19:58;;;;;;;;;;;;;;;19.35;59.97;101231.17;1774173;81;25777;-54
2022/07/23 04:22:27;;;;;;;;;;;;;;;19.43;59.79;101225.31;1774428;80;25727;-55
2022/07/23 04:24:54;;;;;;;;;;;;;;;19.50;59.53;101231.73;1773911;80;25723;-55
2022/07/23 04:27:20;;;;;;;;;;;;;;;19.55;59.36;101231.51;1774185;81;26322;-54
2022/07/23 04:29:47;;;;;;;;;;;;;;;19.61;59.57;101229.92;1773852;81;27507;-56
2022/07/23 04:32:14;;;;;;;;;;;;;;;19.65;59.42;101229.03;1773911;81;25709;-55
2022/07/23 04:34:41;;;;;;;;;;;;;;;19.73;59.44;101233.05;1773744;80;25797;-56
2022/07/23 04:37:09;;;;;;;;;;;;;;;19.84;59.13;101235.86;1747707;80;25856;-56
2022/07/23 04:39:36;;;;;;;;;;;;;;;19.92;58.95;101225.38;1743396;82;25767;-56
2022/07/23 04:42:04;;;;;;;;;;;;;;;20.00;58.81;101232.98;1743568;82;27460;-56
2022/07/23 04:44:31;;;;;;;;;;;;;;;20.08;58.76;101228.47;1755877;79;25748;-56
2022/07/23 04:46:58;;;;;;;;;;;;;;;20.16;58.38;101225.63;1773857;81;25704;-56
2022/07/23 04:49:26;;;;;;;;;;;;;;;20.23;58.18;101227.94;1774280;81;25716;-56
2022/07/23 04:51:52;;;;;;;;;;;;;;;20.30;58.09;101230.77;1774037;81;25672;-57
2022/07/23 04:54:19;;;;;;;;;;;;;;;20.38;57.98;101232.02;1773438;80;27513;-56
2022/07/23 04:56:45;;;;;;;;;;;;;;;20.47;57.67;101230.05;1773131;80;25715;-56
2022/07/23 04:59:12;;;;;;;;;;;;;;;20.55;57.43;101226.34;1773104;81;25704;-56
2022/07/23 05:01:41;;;;;;;;;;;;;;;20.65;57.27;101220.06;1774158;81;26698;-56
2022/07/23 05:04:08;;;;;;;;;;;;;;;20.74;57.09;101224.94;1773599;79;25707;-56
2022/07/23 05:06:37;;;;;;;;;;;;;;;20.82;57.08;101216.61;1774288;81;45469;-56
2022/07/23 05:09:05;;;;;;;;;;;;;;;20.90;56.82;101212.89;1774090;81;25673;-56
2022/07/23 05:11:33;;;;;;;;;;;;;;;20.97;56.55;101217.94;1774474;81;25803;-56
2022/07/23 05:13:59;;;;;;;;;;;;;;;21.04;56.01;101215.25;1775865;80;25787;-56
2022/07/23 05:16:43;;;;;;;;;;;;;;;21.11;55.73;101216.19;1782692;80;25971;-56
2022/07/23 05:19:11;;;;;;;;;;;;;;;21.18;55.49;101218.45;1780262;80;27545;-56
2022/07/23 05:21:38;;;;;;;;;;;;;;;21.27;55.37;101219.16;1782087;80;25691;-56
2022/07/23 05:24:07;;;;;;;;;;;;;;;21.36;55.13;101215.78;1781836;79;25835;-55
2022/07/23 05:26:34;;;;;;;;;;;;;;;21.42;54.60;101221.82;1782707;80;26141;-56
2022/07/23 05:29:01;;;;;;;;;;;;;;;21.50;54.03;101219.47;1751584;82;25768;-56
2022/07/23 05:31:28;;;;;;;;;;;;;;;21.60;53.70;101225.99;1751653;82;27536;-56
2022/07/23 05:33:54;;;;;;;;;;;;;;;21.70;53.48;101226.50;1756163;80;25752;-56
2022/07/23 05:36:21;;;;;;;;;;;;;;;21.77;53.41;101228.76;1764198;80;25778;-55
2022/07/23 05:38:52;;;;;;;;;;;;;;;21.86;53.32;101223.98;1749522;81;25676;-56
2022/07/23 05:41:19;;;;;;;;;;;;;;;21.93;53.17;101224.88;1750335;81;26126;-56
2022/07/23 05:43:47;;;;;;;;;;;;;;;22.01;52.92;101223.84;1754194;80;27460;-56
2022/07/23 05:46:15;;;;;;;;;;;;;;;22.08;52.78;101217.05;1782238;80;25692;-55
2022/07/23 05:48:45;;;;;;;;;;;;;;;22.15;52.67;101218.79;1776870;79;26719;-56
2022/07/23 05:51:13;;;;;;;;;;;;;;;22.23;52.34;101214.18;1748285;80;25743;-55
2022/07/23 05:53:40;;;;;;;;;;;;;;;22.32;52.23;101217.08;1752419;80;25685;-56
2022/07/23 05:56:08;;;;;;;;;;;;;;;22.39;52.00;101213.83;1782401;80;27523;-56
2022/07/23 05:58:36;;;;;;;;;;;;;;;22.47;51.34;101216.97;1782228;80;25689;-55
2022/07/23 06:01:05;;;;;;;;;;;;;;;22.55;51.28;101216.78;1757343;79;25792;-55
2022/07/23 06:03:34;;;;;;;;;;;;;;;22.63;51.12;101216.60;1750942;80;27012;-56
2022/07/23 06:06:01;;;;;;;;;;;;;;;22.70;50.78;101215.27;1781977;80;25696;-56
2022/07/23 06:08:28;;;;;;;;;;;;;;;22.77;49.86;101219.41;1782319;80;27491;-56
2022/07/23 06:10:55;;;;;;;;;;;;;;;22.87;50.17;101212.97;1782225;80;25760;-56
2022/07/23 06:13:21;;;;;;;;;;;;;;;22.96;49.92;101220.49;1778925;80;25866;-55
2022/07/23 06:15:48;;;;;;;;;;;;;;;23.07;49.04;101225.38;1772455;80;25885;-55
2022/07/23 06:18:15;;;;;;;;;;;;;;;23.19;48.37;101225.62;1774245;80;25943;-56
2022/07/23 06:20:41;;;;;;;;;;;;;;;23.29;47.78;101232.93;1762401;80;27466;-57
2022/07/23 06:23:08;;;;;;;;;;;;;;;23.41;46.80;101230.40;1774225;81;25689;-56
2022/07/23 06:25:35;;;;;;;;;;;;;;;23.53;46.53;101232.52;1773794;79;25740;-57
2022/07/23 06:28:02;;;;;;;;;;;;;;;23.64;46.69;101229.66;1753177;80;25660;-56
2022/07/23 06:30:29;;;;;;;;;;;;;;;23.74;46.05;101224.04;1745990;81;25714;-56
2022/07/23 06:32:55;;;;;;;;;;;;;;;23.82;45.74;101228.48;1774059;81;27489;-56
2022/07/23 06:35:22;;;;;;;;;;;;;;;23.91;45.48;101220.33;1761831;80;25644;-56
2022/07/23 06:37:48;;;;;;;;;;;;;;;24.02;45.50;101218.84;1759694;81;25751;-55
2022/07/23 06:40:15;;;;;;;;;;;;;;;24.11;45.19;101215.87;1773990;80;25659;-56
2022/07/23 06:42:42;;;;;;;;;;;;;;;24.20;44.61;101214.57;1743515;82;25503;-55
2022/07/23 06:45:11;;;;;;;;;;;;;;;24.31;44.18;101211.16;1742748;81;29593;-55
2022/07/23 06:47:40;;;;;;;;;;;;;;;24.44;43.85;101210.26;1737392;82;27211;-56
2022/07/23 06:50:08;;;;;;;;;;;;;;;24.54;44.03;101198.78;1750877;81;25676;-56
2022/07/23 06:52:35;;;;;;;;;;;;;;;24.64;43.93;101201.08;1774018;81;26147;-56
2022/07/23 06:55:01;;;;;;;;;;;;;;;24.73;43.95;101200.30;1758571;81;25803;-56
2022/07/23 06:57:28;;;;;;;;;;;;;;;24.82;42.28;101203.11;1760324;80;28074;-56
2022/07/23 06:59:55;;;;;;;;;;;;;;;24.95;42.04;101193.92;1758553;80;25743;-56
2022/07/23 07:02:22;;;;;;;;;;;;;;;25.06;41.02;101195.97;1763246;81;25684;-55
2022/07/23 07:04:50;;;;;;;;;;;;;;;25.20;40.65;101192.58;1757921;81;25792;-56
2022/07/23 07:07:17;;;;;;;;;;;;;;;25.34;40.24;101196.59;1759640;81;25687;-56
2022/07/23 07:09:44;;;;;;;;;;;;;;;25.46;39.78;101190.16;1763408;79;27481;-56
2022/07/23 07:12:11;;;;;;;;;;;;;;;25.56;38.91;101189.66;1766322;81;25807;-56
2022/07/23 07:14:38;;;;;;;;;;;;;;;25.69;39.99;101185.08;1774322;81;25841;-57
2022/07/23 07:17:07;;;;;;;;;;;;;;;25.78;40.19;101181.81;1753823;81;25687;-57
2022/07/23 07:19:34;;;;;;;;;;;;;;;25.88;40.41;101181.82;1758881;81;25843;-56
2022/07/23 07:22:00;;;;;;;;;;;;;;;25.96;40.28;101184.27;1754986;81;27538;-56
2022/07/23 07:24:27;;;;;;;;;;;;;;;26.05;39.76;101183.41;1764032;81;25760;-56
2022/07/23 07:26:54;;;;;;;;;;;;;;;26.16;39.60;101181.86;1763165;81;25406;-56
2022/07/23 07:29:20;;;;;;;;;;;;;;;26.25;38.95;101191.50;1742193;81;25783;-55
2022/07/23 07:31:51;;;;;;;;;;;;;;;26.35;37.43;101192.33;1760455;81;25703;-57
2022/07/23 07:34:22;;;;;;;;;;;;;;;26.45;37.16;101199.52;1772963;80;27595;-56
2022/07/23 07:36:49;;;;;;;;;;;;;;;26.56;37.96;101195.98;1773739;81;25843;-55
2022/07/23 07:39:16;;;;;;;;;;;;;;;26.67;37.24;101199.03;1773828;80;25503;-55
2022/07/23 07:41:43;;;;;;;;;;;;;;;26.78;37.48;101196.03;1770026;81;25697;-55
2022/07/23 07:44:10;;;;;;;;;;;;;;;26.89;36.83;101187.48;1765343;81;25693;-57
2022/07/23 07:46:36;;;;;;;;;;;;;;;27.00;37.25;101183.92;1774266;80;28237;-56
2022/07/23 07:49:03;;;;;;;;;;;;;;;27.13;36.95;101187.84;1774127;80;25632;-56
2022/07/23 07:51:29;;;;;;;;;;;;;;;27.24;37.01;101185.34;1761237;80;25740;-55
2022/07/23 07:53:56;;;;;;;;;;;;;;;27.33;36.94;101179.24;1773404;80;25641;-57
2022/07/23 07:56:23;;;;;;;;;;;;;;;27.46;36.67;101180.10;1774344;80;25755;-57
2022/07/23 07:58:49;;;;;;;;;;;;;;;27.57;36.08;101169.60;1774573;79;27513;-56
2022/07/23 08:01:16;;;;;;;;;;;;;;;27.68;36.17;101173.44;1773583;80;25764;-57
2022/07/23 08:03:43;;;;;;;;;;;;;;;27.79;36.19;101175.91;1773908;80;25639;-56
2022/07/23 08:06:11;;;;;;;;;;;;;;;27.87;35.82;101176.06;1748569;81;25875;-57
2022/07/23 08:08:40;;;;;;;;;;;;;;;27.96;36.21;101174.61;1742226;81;25736;-56
2022/07/23 08:11:07;;;;;;;;;;;;;;;28.06;36.25;101171.24;1758921;80;27487;-56
2022/07/23 08:13:34;;;;;;;;;;;;;;;28.18;35.19;101170.68;1774078;80;25509;-57
2022/07/23 08:16:01;;;;;;;;;;;;;;;28.29;35.45;101166.75;1774136;81;25777;-56
2022/07/23 08:18:27;;;;;;;;;;;;;;;28.41;35.54;101169.77;1761634;80;25602;-56
2022/07/23 08:20:54;;;;;;;;;;;;;;;28.54;34.79;101170.57;1765621;80;26224;-56
2022/07/23 08:23:20;;;;;;;;;;;;;;;28.64;35.12;101162.99;1770540;80;27625;-56
2022/07/23 08:25:47;;;;;;;;;;;;;;;28.74;33.90;101158.51;1780123;80;25711;-56
2022/07/23 08:28:14;;;;;;;;;;;;;;;28.81;33.47;101160.30;1744523;80;25792;-56
2022/07/23 08:30:42;;;;;;;;;;;;;;;28.85;34.26;101162.85;1758176;81;25750;-56
2022/07/23 08:33:12;;;;;;;;;;;;;;;28.95;34.44;101149.75;1762768;81;26203;-58
2022/07/23 08:35:42;;;;;;;;;;;;;;;29.04;34.35;101149.63;1757969;81;27501;-57
2022/07/23 08:38:10;;;;;;;;;;;;;;;29.16;34.17;101153.70;1766365;81;25514;-57
2022/07/23 08:40:42;;;;;;;;;;;;;;;29.28;33.78;101152.22;1761835;81;25747;-56
2022/07/23 08:43:12;;;;;;;;;;;;;;;29.39;33.96;101155.48;1766922;81;27544;-58
2022/07/23 08:45:41;;;;;;;;;;;;;;;29.50;33.27;101150.92;1773098;80;25693;-56
2022/07/23 08:48:14;;;;;;;;;;;;;;;29.57;32.79;101147.98;1758591;81;31012;-56
2022/07/23 08:50:43;;;;;;;;;;;;;;;29.64;33.05;101156.39;1758459;81;25928;-57
2022/07/23 08:53:10;;;;;;;;;;;;;;;29.74;32.37;101152.08;1754433;81;25786;-57
2022/07/23 08:55:36;;;;;;;;;;;;;;;29.87;32.14;101147.56;1773261;80;26274;-56
2022/07/23 08:58:03;;;;;;;;;;;;;;;30.02;32.70;101157.20;1773165;80;25761;-56
2022/07/23 09:00:31;;;;;;;;;;;;;;;30.15;32.76;101154.05;1768687;81;27565;-56
2022/07/23 09:02:58;;;;;;;;;;;;;;;30.32;32.58;101155.34;1761703;81;25706;-57
2022/07/23 09:05:24;;;;;;;;;;;;;;;30.52;32.43;101149.23;1764015;81;25460;-57
2022/07/23 09:08:10;;;;;;;;;;;;;;;30.71;32.20;101153.00;1773095;79;25767;-57
2022/07/23 09:10:49;;;;;;;;;;;;;;;30.90;31.84;101150.13;1774130;80;25653;-57
2022/07/23 09:13:39;;;;;;;;;;;;;;;31.13;31.16;101145.91;1772391;80;27526;-56
2022/07/23 09:16:12;;;;;;;;;;;;;;;31.30;30.96;101155.49;1759137;81;25736;-58
2022/07/23 09:18:45;;;;;;;;;;;;;;;31.55;31.06;101149.28;1764450;80;25814;-57
2022/07/23 09:21:18;;;;;;;;;;;;;;;31.79;30.44;101137.19;1755651;81;25879;-57
2022/07/23 09:23:52;;;;;;;;;;;;;;;32.09;30.20;101139.83;1761751;80;25738;-57
2022/07/23 09:26:22;;;;;;;;;;;;;;;32.35;29.76;101146.89;1763739;81;27478;-56
2022/07/23 09:29:04;;;;;;;;;;;;;;;32.66;29.57;101145.57;1761459;80;26507;-56
2022/07/23 09:31:43;;;;;;;;;;;;;;;33.02;28.06;101145.63;1760287;81;25479;-57
2022/07/23 09:34:12;;;;;;;;;;;;;;;33.32;28.28;101140.30;1764363;81;25772;-57
2022/07/23 09:36:39;;;;;;;;;;;;;;;33.64;27.80;101141.92;1766786;81;25917;-57
2022/07/23 09:39:09;;;;;;;;;;;;;;;33.90;27.40;101135.73;1774468;81;27439;-57
2022/07/23 09:41:44;;;;;;;;;;;;;;;34.18;26.98;101132.80;1772729;80;25899;-55
2022/07/23 09:44:19;;;;;;;;;;;;;;;34.44;25.91;101130.45;1754096;81;25787;-56
2022/07/23 09:46:48;;;;;;;;;;;;;;;34.48;24.84;101137.12;1761439;81;25744;-56
2022/07/23 09:49:18;;;;;;;;;;;;;;;34.59;25.64;101133.14;1773288;80;25665;-57
2022/07/23 09:51:53;;;;;;;;;;;;;;;34.98;25.90;101123.66;1773343;80;27666;-56
2022/07/23 09:54:26;;;;;;;;;;;;;;;35.39;25.40;101119.04;1774320;81;27278;-58
2022/07/23 09:56:55;;;;;;;;;;;;;;;35.64;23.96;101122.16;1773263;80;25693;-55
2022/07/23 09:59:26;;;;;;;;;;;;;;;35.81;23.88;101118.88;1765189;79;26472;-56
2022/07/23 10:01:56;;;;;;;;;;;;;;;36.07;23.88;101107.92;1761603;80;25935;-56
2022/07/23 10:04:24;;;;;;;;;;;;;;;36.24;23.99;101113.02;1757539;81;27805;-56
2022/07/23 10:07:04;;;;;;;;;;;;;;;36.54;23.11;101109.50;1711464;83;25884;-56
2022/07/23 10:09:52;;;;;;;;;;;;;;;36.83;22.24;101108.47;1761053;80;26687;-56
2022/07/23 10:15:13;;;;;;;;;;;;;;;37.28;22.26;101111.61;1756727;81;26023;-58
2022/07/23 10:17:39;;;;;;;;;;;;;;;37.75;21.47;101107.33;1756899;80;27547;-57
2022/07/23 10:20:06;;;;;;;;;;;;;;;37.94;20.19;101105.00;1758001;80;26027;-57
2022/07/23 10:22:37;;;;;;;;;;;;;;;38.30;20.79;101093.80;1770783;81;25810;-56
2022/07/23 10:25:24;;;;;;;;;;;;;;;38.82;19.80;101084.95;1760314;80;25685;-55
2022/07/23 10:28:06;;;;;;;;;;;;;;;39.13;20.06;101081.34;1766596;80;25752;-56
2022/07/23 10:30:45;;;;;;;;;;;;;;;39.62;19.13;101085.34;1755494;80;27482;-58
2022/07/23 10:33:31;;;;;;;;;;;;;;;39.72;18.05;101080.86;1761340;80;25808;-57
2022/07/23 10:36:22;;;;;;;;;;;;;;;39.70;18.55;101078.38;1763047;81;25632;-57
2022/07/23 10:38:59;;;;;;;;;;;;;;;40.08;18.37;101078.34;1758100;81;25599;-56
2022/07/23 10:41:38;;;;;;;;;;;;;;;40.46;17.93;101073.48;1762856;80;25973;-59
2022/07/23 10:44:08;;;;;;;;;;;;;;;40.86;18.00;101067.36;1762931;80;28196;-57
2022/07/23 10:46:44;;;;;;;;;;;;;;;41.31;17.46;101069.70;1766744;80;26150;-56
2022/07/23 10:49:24;;;;;;;;;;;;;;;41.73;17.53;101062.79;1759169;80;26181;-57
2022/07/23 10:52:21;;;;;;;;;;;;;;;42.17;15.23;101061.66;1758690;81;25787;-57
2022/07/23 10:55:02;;;;;;;;;;;;;;;42.11;16.72;101058.77;1758334;81;25253;-57
2022/07/23 10:57:29;;;;;;;;;;;;;;;42.14;16.05;101057.50;1749643;81;27458;-57
2022/07/23 11:02:38;;;;;;;;;;;;;;;42.76;15.68;101044.23;1761021;81;25687;-57
2022/07/23 11:05:08;;;;;;;;;;;;;;;42.82;14.68;101045.65;1773981;81;25794;-57
2022/07/23 11:07:37;;;;;;;;;;;;;;;42.57;15.94;101042.73;1761236;80;25718;-57
2022/07/23 11:10:05;;;;;;;;;;;;;;;42.56;15.77;101043.91;1771780;80;27452;-57
2022/07/23 11:12:35;;;;;;;;;;;;;;;42.58;15.28;101037.92;1761839;80;25842;-56
2022/07/23 11:15:12;;;;;;;;;;;;;;;42.98;15.81;101035.32;1760792;80;25689;-55
2022/07/23 11:17:57;;;;;;;;;;;;;;;43.31;15.62;101042.90;1757088;81;25760;-58
2022/07/23 11:20:23;;;;;;;;;;;;;;;43.74;14.34;101036.96;1761785;80;25711;-56
2022/07/23 11:22:58;;;;;;;;;;;;;;;43.97;13.61;101033.61;1758458;81;26287;-57
2022/07/23 11:25:31;;;;;;;;;;;;;;;44.21;14.14;101032.12;1758502;80;25776;-56
2022/07/23 11:28:20;;;;;;;;;;;;;;;44.47;13.32;101036.51;1756332;81;25814;-57
2022/07/23 11:30:48;;;;;;;;;;;;;;;44.59;13.40;101025.68;1753068;81;26438;-56
2022/07/23 11:33:17;;;;;;;;;;;;;;;44.55;12.38;101029.84;1758531;81;25688;-58
2022/07/23 11:35:49;;;;;;;;;;;;;;;44.71;13.07;101023.35;1758079;79;27619;-57
2022/07/23 11:38:23;;;;;;;;;;;;;;;45.02;12.47;101018.30;1757459;80;25619;-57
2022/07/23 11:40:51;;;;;;;;;;;;;;;45.53;12.86;101015.86;1766993;81;25708;-57
2022/07/23 11:43:19;;;;;;;;;;;;;;;45.87;12.63;101006.27;1767294;80;25660;-58
2022/07/23 11:45:48;;;;;;;;;;;;;;;46.02;12.00;100996.05;1763950;80;25662;-56
2022/07/23 11:48:23;;;;;;;;;;;;;;;46.23;12.21;100997.91;1760151;81;28523;-56
2022/07/23 11:50:50;;;;;;;;;;;;;;;46.45;12.03;100991.83;1759515;80;26126;-57
2022/07/23 11:53:33;;;;;;;;;;;;;;;46.36;11.88;100987.21;1758435;81;25838;-57
2022/07/23 11:56:06;;;;;;;;;;;;;;;46.62;12.43;100984.83;1757577;81;26458;-57
2022/07/23 11:58:37;;;;;;;;;;;;;;;46.88;11.23;100985.48;1758663;81;25802;-57
2022/07/23 12:01:04;;;;;;;;;;;;;;;46.84;11.90;100987.47;1760342;79;27542;-57
2022/07/23 12:03:31;;;;;;;;;;;;;;;47.23;11.82;100987.27;1756398;81;25759;-56
2022/07/23 12:05:59;;;;;;;;;;;;;;;47.76;11.94;100979.86;1757651;79;25731;-57
2022/07/23 12:08:26;;;;;;;;;;;;;;;48.11;11.27;100976.66;1753374;81;25775;-58
2022/07/23 12:10:52;;;;;;;;;;;;;;;48.42;11.52;100970.88;1752934;81;25756;-57
2022/07/23 12:13:22;;;;;;;;;;;;;;;48.72;10.63;100963.62;1753592;81;27482;-57
2022/07/23 12:15:51;;;;;;;;;;;;;;;48.51;11.42;100959.95;1762494;79;25904;-58
2022/07/23 12:18:28;;;;;;;;;;;;;;;48.63;11.02;100956.00;1758200;79;25717;-57
2022/07/23 12:20:55;;;;;;;;;;;;;;;48.95;10.57;100953.17;1758443;80;25621;-57
2022/07/23 12:23:27;;;;;;;;;;;;;;;49.09;10.80;100949.63;1754873;80;25628;-57
2022/07/23 12:25:54;;;;;;;;;;;;;;;49.10;10.20;100950.64;1765386;80;27566;-57
2022/07/23 12:28:24;;;;;;;;;;;;;;;49.27;10.43;100946.89;1761485;81;25762;-57
2022/07/23 12:30:55;;;;;;;;;;;;;;;49.57;10.04;100950.09;1761303;81;25965;-59
2022/07/23 12:33:31;;;;;;;;;;;;;;;49.70;10.07;100950.55;1757732;79;25723;-57
2022/07/23 12:35:59;;;;;;;;;;;;;;;49.87;9.76;100949.02;1757849;81;25727;-58
2022/07/23 12:38:28;;;;;;;;;;;;;;;50.28;9.67;100945.84;1757547;81;27490;-58
2022/07/23 12:40:59;;;;;;;;;;;;;;;50.42;9.70;100947.29;1772303;79;25492;-58
2022/07/23 12:43:31;;;;;;;;;;;;;;;50.50;9.22;100943.02;1770936;80;25771;-57
2022/07/23 12:46:07;;;;;;;;;;;;;;;50.31;8.91;100937.88;1766636;81;25674;-57
2022/07/23 12:48:39;;;;;;;;;;;;;;;50.41;9.44;100931.94;1756445;81;25650;-58
2022/07/23 12:51:10;;;;;;;;;;;;;;;50.74;9.43;100934.22;1758080;79;28165;-56
2022/07/23 12:53:45;;;;;;;;;;;;;;;50.94;9.39;100936.05;1757501;81;26282;-56